Main page
METAR-TAF:

METAR-TAF

Airports :

Norfolk Island Airport

Norfolk Island, Australia

latitude: 29-02S, longitude: 167-56E, elevation: 113 m

Current weather observation

The report was made 33 minutes ago, at 18:00 UTC
Wind 5 kt from the North
Temperature 16°C
Humidity 77%
Pressure 1020 hPa
Visibility 10 km or more

METAR: YSNF 211800Z AUTO 01005KT 9999 // NCD 16/12 Q1020 RF00.0/000.0

Time: 04:33 (18:33 UTC)

Forecast

The report was made 1 hour and 31 minutes ago, at 17:02 UTC
Forecast valid from 21 at 18 UTC to 22 at 18 UTC
Wind 7 kt from the North
Visibility 10 km or more
Scattered clouds at a height of 2500 ft
From 22 at 1200 UTC
Wind 10 kt from the West/Northwest
Visibility 10 km or more
Scattered clouds at a height of 2500 ft
light rain,

TAF: YSNF 211702Z 2118/2218 35007KT 9999 SCT025 FM221200 30010KT 9999 -RA SCT025

Weather observations and forecasts of more than 4000 airports (METAR and TAF reports).

The available stations are represented by yellow and red dots on the map.

Hover mouse over dot to see the name of the station.

Then click to see weather observations and forecasts.

To change the map : click on the green buttons with a black cross to zoom in, on the green button with a dash to zoom out, or on the green arrows for adjacent maps.


METAR-TAF: